Time;durP1;ratioP1;P1;durP2;ratioP2;P2;SDS_P1;SDS_P2;PMS_P1;PMS_P2;Temp;Humidity;BMP_temperature;BMP_pressure;BME280_temperature;BME280_humidity;BME280_pressure;Samples;Min_cycle;Max_cycle;Signal;HPM_P1;HPM_P2
2022/04/05 00:02:15;;;;;;;9.68;4.95;;;;;;;4.36;84.20;98536.75;5090034;28;20127;-84
2022/04/05 00:04:41;;;;;;;9.02;5.40;;;;;;;4.22;84.88;98519.38;5085397;28;20055;-84
2022/04/05 00:07:09;;;;;;;6.78;5.13;;;;;;;4.31;85.90;98526.47;5085358;28;20127;-83
2022/04/05 00:09:36;;;;;;;8.13;5.18;;;;;;;4.32;84.33;98522.78;5090082;28;20052;-84
2022/04/05 00:12:03;;;;;;;7.60;5.00;;;;;;;4.22;85.41;98503.22;5093997;28;20131;-84
2022/04/05 00:14:30;;;;;;;8.18;5.53;;;;;;;4.30;84.33;98514.00;5069729;28;20066;-84
2022/04/05 00:16:57;;;;;;;7.85;4.90;;;;;;;4.35;84.24;98524.28;5069662;28;20048;-84
2022/04/05 00:19:25;;;;;;;11.10;5.38;;;;;;;4.32;84.07;98527.31;5072169;28;20187;-84
2022/04/05 00:21:54;;;;;;;9.15;4.93;;;;;;;4.22;83.77;98508.59;5089336;28;20044;-84
2022/04/05 00:24:22;;;;;;;6.88;4.65;;;;;;;4.27;83.91;98505.44;5088505;28;20051;-84
2022/04/05 00:26:48;;;;;;;10.10;5.47;;;;;;;4.30;84.24;98505.09;5073022;28;20051;-84
2022/04/05 00:29:15;;;;;;;7.68;5.35;;;;;;;4.37;84.15;98528.53;5070081;28;20053;-84
2022/04/05 00:31:41;;;;;;;8.85;5.18;;;;;;;4.26;83.55;98512.66;5079851;28;20051;-84
2022/04/05 00:34:08;;;;;;;7.45;4.57;;;;;;;4.36;85.69;98518.75;5099458;28;20075;-84
2022/04/05 00:36:34;;;;;;;6.72;4.25;;;;;;;4.32;84.25;98508.47;5102257;28;20155;-84
2022/04/05 00:39:01;;;;;;;12.18;7.55;;;;;;;4.32;84.90;98520.09;5086146;28;20059;-84
2022/04/05 00:41:29;;;;;;;8.75;4.93;;;;;;;4.35;83.22;98510.84;5086998;28;20115;-84
2022/04/05 00:43:56;;;;;;;6.60;4.50;;;;;;;4.26;85.24;98493.84;5070674;28;20650;-85
2022/04/05 00:46:22;;;;;;;8.05;4.93;;;;;;;4.33;88.05;98489.47;5088317;28;20155;-84
2022/04/05 00:48:51;;;;;;;6.90;4.53;;;;;;;4.36;87.42;98497.22;5089646;28;20410;-84
2022/04/05 00:51:19;;;;;;;8.53;4.50;;;;;;;4.18;87.68;98480.31;5082783;28;20040;-85
2022/04/05 00:53:48;;;;;;;12.80;6.03;;;;;;;4.29;87.47;98492.66;5088063;28;20290;-84
2022/04/05 00:56:16;;;;;;;8.50;5.60;;;;;;;4.34;89.90;98484.94;5071152;28;20484;-83
2022/04/05 00:58:48;;;;;;;7.82;4.97;;;;;;;4.31;89.36;98494.19;5080064;28;20130;-84
2022/04/05 01:01:18;;;;;;;7.55;5.85;;;;;;;4.17;91.21;98476.81;5087574;28;20060;-84
2022/04/05 01:03:48;;;;;;;8.35;5.72;;;;;;;4.25;94.76;98494.81;5068618;28;20549;-84
2022/04/05 01:06:16;;;;;;;;;;;;;;;4.28;96.52;98497.19;5072340;28;20093;-84
2022/04/05 01:08:45;;;;;;;8.10;4.90;;;;;;;4.07;97.30;98476.06;5087706;28;20275;-84
2022/04/05 01:11:12;;;;;;;6.65;5.25;;;;;;;4.17;98.65;98495.63;5074669;28;20044;-84
2022/04/05 01:13:38;;;;;;;10.25;5.78;;;;;;;4.07;98.93;98474.22;5088629;28;20048;-84
2022/04/05 01:16:07;;;;;;;10.63;6.15;;;;;;;4.08;100.00;98485.84;5087586;27;20075;-84
2022/04/05 01:18:34;;;;;;;11.50;5.00;;;;;;;4.06;100.00;98477.94;5088815;28;20170;-84
2022/04/05 01:21:01;;;;;;;10.27;6.28;;;;;;;3.93;100.00;98468.59;5071777;28;20458;-84
2022/04/05 01:23:28;;;;;;;10.30;5.15;;;;;;;3.98;100.00;98475.19;5068239;28;20054;-83
2022/04/05 01:25:56;;;;;;;12.10;6.00;;;;;;;3.87;100.00;98470.91;5068673;28;20048;-83
2022/04/05 01:28:23;;;;;;;7.07;5.22;;;;;;;3.97;100.00;98475.34;5078696;28;20078;-83
2022/04/05 01:30:53;;;;;;;8.73;5.68;;;;;;;3.98;100.00;98461.72;5078896;28;20066;-83
2022/04/05 01:33:23;;;;;;;;;;;;;;;3.97;100.00;98465.41;5074872;28;20135;-82
2022/04/05 01:35:49;;;;;;;9.27;5.18;;;;;;;3.89;100.00;98449.25;5080084;28;19920;-83
2022/04/05 01:38:19;;;;;;;9.15;5.72;;;;;;;3.90;100.00;98456.31;5078899;28;20057;-84
2022/04/05 01:40:47;;;;;;;7.40;5.30;;;;;;;3.92;100.00;98477.69;5072347;28;20052;-84
2022/04/05 01:43:15;;;;;;;9.10;5.85;;;;;;;3.87;100.00;98470.09;5072764;28;20052;-84
2022/04/05 01:45:44;;;;;;;7.53;5.07;;;;;;;3.78;100.00;98469.19;5087039;28;20048;-85
2022/04/05 01:48:11;;;;;;;6.88;5.07;;;;;;;3.75;100.00;98460.59;5088621;28;20306;-85
2022/04/05 01:50:38;;;;;;;8.57;6.10;;;;;;;3.73;100.00;98463.44;5070739;28;20051;-85
2022/04/05 01:53:04;;;;;;;10.55;6.45;;;;;;;3.68;100.00;98449.63;5070571;28;20052;-85
2022/04/05 01:55:31;;;;;;;14.52;5.88;;;;;;;3.76;100.00;98454.22;5078439;28;20044;-86
2022/04/05 01:57:58;;;;;;;8.68;5.95;;;;;;;3.59;100.00;98431.78;5096845;28;20036;-86
2022/04/05 02:00:26;;;;;;;9.77;6.15;;;;;;;3.66;100.00;98465.09;5091205;28;20056;-86
2022/04/05 02:02:53;;;;;;;10.32;5.75;;;;;;;3.55;100.00;98433.91;5090356;28;20131;-86
2022/04/05 02:05:20;;;;;;;9.90;5.97;;;;;;;3.63;100.00;98455.47;5072517;28;20599;-86
2022/04/05 02:07:47;;;;;;;10.40;6.80;;;;;;;3.60;100.00;98438.81;5071330;28;20056;-87
2022/04/05 02:10:13;;;;;;;9.50;5.60;;;;;;;3.61;100.00;98435.97;5082848;28;20079;-86
2022/04/05 02:12:40;;;;;;;10.32;6.10;;;;;;;3.56;100.00;98422.16;5090331;28;20063;-87
2022/04/05 02:15:08;;;;;;;10.45;6.28;;;;;;;3.59;100.00;98431.78;5085536;28;20049;-87
2022/04/05 02:17:37;;;;;;;10.55;6.18;;;;;;;3.64;100.00;98446.41;5071542;28;20044;-87
2022/04/05 02:20:05;;;;;;;12.15;6.85;;;;;;;3.52;100.00;98440.47;5071365;28;20055;-87
2022/04/05 02:22:32;;;;;;;12.75;6.80;;;;;;;3.43;100.00;98419.06;5071470;28;20056;-87
2022/04/05 02:25:01;;;;;;;11.05;6.10;;;;;;;3.61;100.00;98449.41;5073341;28;20170;-87
2022/04/05 02:27:28;;;;;;;12.60;6.75;;;;;;;3.50;100.00;98441.63;5094345;28;20469;-87
2022/04/05 02:29:55;;;;;;;13.07;7.00;;;;;;;3.57;100.00;98456.13;5095381;28;20109;-87
2022/04/05 02:32:21;;;;;;;9.57;6.28;;;;;;;3.47;100.00;98442.75;5089789;28;20052;-87
2022/04/05 02:34:49;;;;;;;14.75;7.60;;;;;;;3.45;100.00;98450.16;5086609;28;20048;-87
2022/04/05 02:37:16;;;;;;;11.75;7.07;;;;;;;3.31;100.00;98424.69;5094750;28;20134;-87
2022/04/05 02:39:43;;;;;;;11.20;7.40;;;;;;;3.32;100.00;98441.66;5095247;28;20135;-86
2022/04/05 02:42:10;;;;;;;14.13;7.45;;;;;;;3.23;100.00;98443.44;5088887;28;20048;-87
2022/04/05 02:44:38;;;;;;;10.02;6.88;;;;;;;3.37;100.00;98455.44;5094088;28;20048;-86
2022/04/05 02:47:07;;;;;;;11.02;7.43;;;;;;;3.19;100.00;98459.03;5092942;28;20362;-87
2022/04/05 02:49:34;;;;;;;10.40;6.93;;;;;;;3.39;100.00;98463.34;5076293;28;20080;-86
2022/04/05 02:52:03;;;;;;;11.05;7.07;;;;;;;3.22;100.00;98444.41;5078118;28;20052;-86
2022/04/05 02:54:30;;;;;;;14.63;8.32;;;;;;;3.14;100.00;98455.09;5094362;28;20052;-87
2022/04/05 02:56:58;;;;;;;12.02;7.95;;;;;;;3.08;100.00;98455.72;5078639;28;20102;-86
2022/04/05 02:59:25;;;;;;;10.65;6.72;;;;;;;3.03;100.00;98456.19;5088365;28;20052;-87
2022/04/05 03:01:52;;;;;;;10.55;6.75;;;;;;;2.94;100.00;98433.78;5089621;28;20052;-86
2022/04/05 03:04:18;;;;;;;12.45;8.27;;;;;;;3.05;100.00;98459.56;5074004;28;20059;-86
2022/04/05 03:06:46;;;;;;;12.63;7.78;;;;;;;3.14;100.00;98447.06;5087195;28;20055;-86
2022/04/05 03:09:15;;;;;;;12.90;7.95;;;;;;;3.10;100.00;98443.84;5081228;28;20504;-86
2022/04/05 03:11:44;;;;;;;13.15;7.82;;;;;;;3.08;100.00;98442.31;5074007;28;20052;-86
2022/04/05 03:14:11;;;;;;;12.05;7.72;;;;;;;3.07;100.00;98421.81;5082298;28;20054;-85
2022/04/05 03:16:38;;;;;;;10.77;7.35;;;;;;;3.18;100.00;98451.97;5086828;28;20051;-85
2022/04/05 03:19:05;;;;;;;13.77;7.78;;;;;;;3.18;100.00;98457.31;5093121;28;20060;-85
2022/04/05 03:21:32;;;;;;;10.90;7.45;;;;;;;3.12;100.00;98459.81;5094024;28;20476;-85
2022/04/05 03:23:59;;;;;;;13.07;7.35;;;;;;;3.11;100.00;98469.69;5091268;28;20075;-85
2022/04/05 03:26:27;;;;;;;11.55;7.97;;;;;;;3.04;100.00;98465.09;5077434;28;20147;-86
2022/04/05 03:29:00;;;;;;;16.33;8.20;;;;;;;2.80;100.00;98445.91;5073857;28;20040;-87
2022/04/05 03:31:32;;;;;;;12.90;7.25;;;;;;;2.82;100.00;98451.13;5089573;28;20102;-85
2022/04/05 03:34:09;;;;;;;11.50;7.18;;;;;;;2.93;100.00;98458.94;5088774;28;20075;-86
2022/04/05 03:36:38;;;;;;;12.18;7.32;;;;;;;2.77;100.00;98442.69;5073161;28;20143;-85
2022/04/05 03:39:08;;;;;;;12.70;6.93;;;;;;;2.67;100.00;98432.03;5073696;28;20048;-86
2022/04/05 03:41:36;;;;;;;14.70;8.32;;;;;;;2.70;100.00;98444.31;5073194;28;20440;-86
2022/04/05 03:44:04;;;;;;;12.45;7.75;;;;;;;2.73;100.00;98450.19;5083351;28;20089;-85
2022/04/05 03:46:30;;;;;;;13.00;8.10;;;;;;;2.76;100.00;98446.38;5089568;28;20052;-84
2022/04/05 03:48:57;;;;;;;12.88;7.35;;;;;;;2.69;100.00;98443.44;5090002;28;20050;-85
2022/04/05 03:51:24;;;;;;;13.00;7.38;;;;;;;2.65;100.00;98434.88;5081100;28;20568;-84
2022/04/05 03:53:50;;;;;;;11.65;7.53;;;;;;;2.65;100.00;98436.72;5072323;28;20052;-84
2022/04/05 03:56:18;;;;;;;11.43;7.32;;;;;;;2.58;100.00;98449.06;5082749;28;20048;-84
2022/04/05 03:58:46;;;;;;;13.27;8.35;;;;;;;2.63;100.00;98436.00;5093318;28;20048;-84
2022/04/05 04:01:13;;;;;;;12.70;7.93;;;;;;;2.64;100.00;98427.81;5073794;28;20052;-80
2022/04/05 04:03:45;;;;;;;14.05;7.95;;;;;;;2.57;100.00;98433.94;5078863;28;20044;-84
2022/04/05 04:06:11;;;;;;;13.32;8.75;;;;;;;2.57;100.00;98412.47;5092741;28;20123;-84
2022/04/05 04:08:38;;;;;;;14.80;8.73;;;;;;;2.59;100.00;98414.00;5094010;28;20713;-83
2022/04/05 04:11:04;;;;;;;14.60;7.65;;;;;;;2.48;100.00;98424.94;5094376;28;20057;-84
2022/04/05 04:13:31;;;;;;;11.25;7.95;;;;;;;2.66;100.00;98419.59;5080695;28;20049;-83
2022/04/05 04:15:59;;;;;;;12.50;7.18;;;;;;;2.72;100.00;98428.88;5087589;28;20040;-84
2022/04/05 04:18:26;;;;;;;11.95;7.30;;;;;;;2.72;100.00;98428.88;5080312;28;20076;-84
2022/04/05 04:20:52;;;;;;;15.65;9.00;;;;;;;2.73;100.00;98428.72;5076070;28;20048;-83
2022/04/05 04:23:19;;;;;;;14.70;7.80;;;;;;;2.71;100.00;98427.19;5091714;28;20419;-82
2022/04/05 04:25:46;;;;;;;14.18;8.85;;;;;;;2.71;100.00;98419.13;5084912;28;20113;-83
2022/04/05 04:28:13;;;;;;;17.33;7.78;;;;;;;2.73;100.00;98422.53;5073707;28;20036;-83
2022/04/05 04:30:40;;;;;;;11.77;8.20;;;;;;;2.83;100.00;98431.31;5091753;28;20483;-83
2022/04/05 04:33:09;;;;;;;16.40;8.18;;;;;;;2.77;100.00;98427.44;5086699;28;20120;-82
2022/04/05 04:35:39;;;;;;;14.25;8.52;;;;;;;2.75;100.00;98421.34;5086960;28;20052;-83
2022/04/05 04:38:06;;;;;;;12.00;7.93;;;;;;;2.82;100.00;98427.81;5090921;28;20044;-83
2022/04/05 04:40:33;;;;;;;15.55;8.57;;;;;;;2.76;100.00;98414.16;5078004;28;20052;-83
2022/04/05 04:43:00;;;;;;;17.63;9.43;;;;;;;2.74;100.00;98422.38;5072498;28;20935;-82
2022/04/05 04:45:28;;;;;;;13.27;8.02;;;;;;;2.73;100.00;98427.91;5071601;28;20060;-83
2022/04/05 04:47:55;;;;;;;14.18;8.93;;;;;;;2.88;100.00;98438.94;5083130;28;20071;-83
2022/04/05 04:50:23;;;;;;;18.35;8.43;;;;;;;2.91;100.00;98428.72;5089581;28;20170;-83
2022/04/05 04:52:50;;;;;;;15.30;8.63;;;;;;;2.75;100.00;98410.63;5080047;28;20142;-82
2022/04/05 04:55:17;;;;;;;14.63;8.75;;;;;;;2.81;100.00;98420.75;5090803;28;20052;-83
2022/04/05 04:57:43;;;;;;;14.82;8.25;;;;;;;2.87;100.00;98434.56;5080718;28;20056;-83
2022/04/05 05:00:11;;;;;;;14.55;8.07;;;;;;;2.90;100.00;98426.19;5071494;28;20482;-83
2022/04/05 05:02:48;;;;;;;18.77;9.35;;;;;;;2.94;100.00;98436.47;5080182;28;20052;-82
2022/04/05 05:05:18;;;;;;;20.45;9.80;;;;;;;2.89;100.00;98448.66;5085978;28;20041;-83
2022/04/05 05:07:50;;;;;;;16.33;9.80;;;;;;;2.83;100.00;98439.38;5089000;28;20451;-83
2022/04/05 05:10:17;;;;;;;23.63;9.82;;;;;;;2.73;100.00;98430.59;5093507;28;20047;-83
2022/04/05 05:12:45;;;;;;;19.13;9.85;;;;;;;2.77;100.00;98450.72;5091442;28;20052;-83
2022/04/05 05:15:14;;;;;;;14.93;9.75;;;;;;;2.69;100.00;98450.66;5072105;28;20067;-82
2022/04/05 05:17:41;;;;;;;17.48;10.13;;;;;;;2.65;100.00;98431.34;5074050;28;20052;-83
2022/04/05 05:20:09;;;;;;;18.08;10.15;;;;;;;2.72;100.00;98437.78;5082558;28;20048;-83
2022/04/05 05:22:36;;;;;;;16.63;9.23;;;;;;;2.79;100.00;98435.34;5089710;28;20063;-83
2022/04/05 05:25:05;;;;;;;17.73;9.27;;;;;;;2.85;100.00;98455.38;5078173;28;20051;-83
2022/04/05 05:27:32;;;;;;;15.82;9.63;;;;;;;2.60;100.00;98436.31;5077596;28;20043;-83
2022/04/05 05:29:58;;;;;;;13.32;9.10;;;;;;;2.77;100.00;98448.91;5096123;28;20058;-82
2022/04/05 05:32:25;;;;;;;16.98;8.68;;;;;;;2.72;100.00;98434.25;5079897;28;20377;-82
2022/04/05 05:34:51;;;;;;;15.43;8.27;;;;;;;2.88;100.00;98450.53;5084955;28;20043;-83
2022/04/05 05:37:18;;;;;;;15.55;8.55;;;;;;;2.87;100.00;98456.88;5089876;28;20048;-83
2022/04/05 05:39:45;;;;;;;12.55;8.60;;;;;;;2.90;100.00;98429.72;5084159;28;20041;-82
2022/04/05 05:42:13;;;;;;;17.63;8.38;;;;;;;2.93;100.00;98444.69;5084208;28;20044;-82
2022/04/05 05:44:39;;;;;;;15.98;9.07;;;;;;;2.98;100.00;98450.44;5082751;28;20564;-83
2022/04/05 05:47:06;;;;;;;13.73;10.10;;;;;;;2.99;100.00;98458.31;5090344;28;20048;-82
2022/04/05 05:49:33;;;;;;;14.70;8.40;;;;;;;2.97;100.00;98459.50;5086474;28;20040;-82
2022/04/05 05:52:01;;;;;;;13.85;8.52;;;;;;;3.03;100.00;98453.50;5087049;28;20060;-82
2022/04/05 05:54:27;;;;;;;16.88;8.20;;;;;;;2.99;100.00;98455.66;5082510;28;20048;-82
2022/04/05 05:56:54;;;;;;;17.67;8.50;;;;;;;3.02;100.00;98454.50;5077133;28;20290;-82
2022/04/05 05:59:22;;;;;;;18.73;9.82;;;;;;;3.09;100.00;98463.63;5071866;28;20416;-82
2022/04/05 06:01:49;;;;;;;12.63;8.38;;;;;;;2.98;100.00;98448.59;5086797;28;20132;-82
2022/04/05 06:04:15;;;;;;;13.10;8.73;;;;;;;3.10;100.00;98459.97;5084805;28;20499;-82
2022/04/05 06:06:43;;;;;;;16.10;8.57;;;;;;;3.13;100.00;98465.03;5086011;28;20052;-82
2022/04/05 06:09:10;;;;;;;14.10;8.65;;;;;;;3.14;100.00;98466.69;5092641;28;20040;-82
2022/04/05 06:11:36;;;;;;;13.13;8.38;;;;;;;3.15;100.00;98454.13;5086691;28;20040;-82
2022/04/05 06:14:03;;;;;;;16.58;9.25;;;;;;;3.19;100.00;98469.78;5073399;28;20056;-82
2022/04/05 06:16:31;;;;;;;13.75;9.57;;;;;;;3.24;100.00;98465.75;5084571;28;20059;-82
2022/04/05 06:18:57;;;;;;;15.32;9.10;;;;;;;3.12;100.00;98466.00;5091077;28;20044;-82
2022/04/05 06:21:24;;;;;;;10.93;7.78;;;;;;;3.17;100.00;98471.75;5086987;28;20048;-82
2022/04/05 06:23:52;;;;;;;17.42;9.43;;;;;;;3.25;100.00;98488.94;5083307;28;20052;-82
2022/04/05 06:26:18;;;;;;;17.35;9.55;;;;;;;3.22;100.00;98462.38;5086887;28;20102;-82
2022/04/05 06:28:45;;;;;;;17.65;9.82;;;;;;;3.32;100.00;98490.00;5091279;28;20048;-83
2022/04/05 06:31:14;;;;;;;14.95;9.68;;;;;;;3.28;100.00;98469.81;5092666;28;20067;-82
2022/04/05 06:33:42;;;;;;;19.70;9.65;;;;;;;3.28;100.00;98480.56;5075706;28;20298;-82
2022/04/05 06:36:08;;;;;;;15.50;9.60;;;;;;;3.16;100.00;98469.22;5081795;28;20772;-82
2022/04/05 06:38:34;;;;;;;17.63;10.52;;;;;;;3.23;100.00;98475.66;5074197;28;20048;-82
2022/04/05 06:41:02;;;;;;;18.15;9.35;;;;;;;3.31;100.00;98474.88;5091072;28;20048;-81
2022/04/05 06:43:29;;;;;;;14.35;8.20;;;;;;;3.30;100.00;98486.66;5091146;28;20052;-82
2022/04/05 06:45:56;;;;;;;13.75;8.32;;;;;;;3.29;100.00;98479.59;5088681;28;20062;-84
2022/04/05 06:48:22;;;;;;;12.45;8.05;;;;;;;3.31;100.00;98488.31;5092619;28;20044;-82
2022/04/05 06:50:53;;;;;;;15.25;9.45;;;;;;;3.32;100.00;98479.28;5082941;28;20492;-82
2022/04/05 06:53:19;;;;;;;13.45;8.52;;;;;;;3.33;100.00;98478.28;5092655;28;20087;-82
2022/04/05 06:55:47;;;;;;;13.65;8.63;;;;;;;3.28;100.00;98480.56;5093593;28;20048;-82
2022/04/05 06:58:14;;;;;;;13.73;7.50;;;;;;;3.33;100.00;98478.28;5092763;28;20456;-83
2022/04/05 07:00:40;;;;;;;18.15;9.02;;;;;;;3.31;100.00;98473.06;5077919;28;20048;-83
2022/04/05 07:03:07;;;;;;;18.83;9.93;;;;;;;3.38;100.00;98467.91;5091561;28;20044;-83
2022/04/05 07:05:33;;;;;;;12.25;7.82;;;;;;;3.36;100.00;98469.91;5076318;28;20408;-83
2022/04/05 07:08:01;;;;;;;16.02;9.25;;;;;;;3.43;100.00;98470.94;5091528;28;20411;-83
2022/04/05 07:10:28;;;;;;;11.73;8.02;;;;;;;3.49;100.00;98464.09;5071288;28;20044;-83
2022/04/05 07:12:54;;;;;;;16.50;9.57;;;;;;;3.54;100.00;98468.03;5089048;28;20056;-83
2022/04/05 07:15:21;;;;;;;15.55;8.98;;;;;;;3.48;100.00;98465.97;5085405;28;20036;-83
2022/04/05 07:17:48;;;;;;;15.45;7.88;;;;;;;3.54;100.00;98468.03;5074933;28;20068;-82
2022/04/05 07:20:14;;;;;;;16.58;9.00;;;;;;;3.55;100.00;98468.84;5079229;28;20411;-82
2022/04/05 07:22:47;;;;;;;18.90;10.02;;;;;;;3.62;100.00;98477.97;5077788;28;20071;-82
2022/04/05 07:25:15;;;;;;;15.52;9.27;;;;;;;3.67;100.00;98494.50;5083049;28;20047;-82
2022/04/05 07:27:44;;;;;;;15.50;8.48;;;;;;;3.68;100.00;98479.19;5091381;28;20058;-82
2022/04/05 07:30:11;;;;;;;14.05;8.40;;;;;;;3.66;100.00;98473.97;5091431;28;20422;-83
2022/04/05 07:32:38;;;;;;;13.80;8.18;;;;;;;3.77;100.00;98472.88;5084895;28;20041;-82
2022/04/05 07:35:05;;;;;;;15.13;8.73;;;;;;;3.85;100.00;98472.06;5072019;28;20047;-82
2022/04/05 07:37:32;;;;;;;18.17;8.80;;;;;;;3.77;100.00;98472.03;5074581;28;20496;-82
2022/04/05 07:39:59;;;;;;;11.07;8.00;;;;;;;3.85;100.00;98472.94;5082459;28;20056;-82
2022/04/05 07:42:28;;;;;;;15.30;9.13;;;;;;;3.75;100.00;98449.81;5080335;28;20048;-82
2022/04/05 07:44:57;;;;;;;15.13;9.07;;;;;;;3.91;100.00;98463.38;5077990;28;20135;-83
2022/04/05 07:47:25;;;;;;;17.08;8.88;;;;;;;3.95;100.00;98469.28;5075506;28;20479;-82
2022/04/05 07:49:51;;;;;;;14.35;8.00;;;;;;;3.93;100.00;98464.06;5078261;28;20037;-82
2022/04/05 07:52:20;;;;;;;18.08;8.10;;;;;;;3.97;100.00;98472.66;5080327;28;20059;-83
2022/04/05 07:54:47;;;;;;;11.80;7.97;;;;;;;4.08;100.00;98475.91;5077425;28;20044;-82
2022/04/05 07:57:14;;;;;;;16.10;8.00;;;;;;;4.14;100.00;98474.44;5074299;28;20381;-83
2022/04/05 07:59:42;;;;;;;13.35;8.45;;;;;;;4.10;100.00;98469.53;5071858;28;20484;-81
2022/04/05 08:02:09;;;;;;;14.82;8.02;;;;;;;4.04;100.00;98468.31;5073417;28;20056;-81
2022/04/05 08:04:35;;;;;;;12.13;7.53;;;;;;;4.03;100.00;98461.25;5092246;28;20254;-81
2022/04/05 08:07:02;;;;;;;13.05;8.15;;;;;;;4.13;100.00;98482.66;5092811;28;20052;-83
2022/04/05 08:09:28;;;;;;;14.18;7.57;;;;;;;4.25;100.00;98481.38;5086216;28;20098;-81
2022/04/05 08:11:57;;;;;;;13.63;8.10;;;;;;;4.19;100.00;98490.94;5092108;28;20051;-83
2022/04/05 08:14:27;;;;;;;12.63;8.30;;;;;;;4.08;100.00;98475.06;5092019;28;20086;-83
2022/04/05 08:16:56;;;;;;;12.48;7.70;;;;;;;4.22;100.00;98484.38;5091860;28;20055;-81
2022/04/05 08:19:23;;;;;;;15.07;8.43;;;;;;;4.31;100.00;98480.72;5092709;28;20102;-81
2022/04/05 08:21:49;;;;;;;16.50;7.68;;;;;;;4.30;100.00;98495.16;5093074;28;20048;-82
2022/04/05 08:24:17;;;;;;;14.15;7.78;;;;;;;4.27;100.00;98502.75;5090939;28;20059;-81
2022/04/05 08:26:44;;;;;;;15.95;8.10;;;;;;;4.38;100.00;98494.38;5085602;28;20101;-81
2022/04/05 08:29:10;;;;;;;11.13;7.40;;;;;;;4.35;100.00;98490.16;5092023;28;20105;-81
2022/04/05 08:31:37;;;;;;;11.65;7.55;;;;;;;4.31;100.00;98494.19;5090931;28;20059;-81
2022/04/05 08:34:05;;;;;;;16.95;8.45;;;;;;;4.42;100.00;98495.72;5091433;28;20052;-81
2022/04/05 08:36:32;;;;;;;11.95;7.32;;;;;;;4.54;100.00;98493.59;5092053;28;20051;-81
2022/04/05 08:38:58;;;;;;;14.55;8.02;;;;;;;4.58;100.00;98498.50;5091986;28;20048;-81
2022/04/05 08:41:26;;;;;;;12.60;7.18;;;;;;;4.51;100.00;98484.00;5091839;28;20052;-81
2022/04/05 08:43:53;;;;;;;11.52;7.80;;;;;;;4.65;100.00;98497.84;5089533;28;20048;-81
2022/04/05 08:46:21;;;;;;;14.05;8.45;;;;;;;4.60;100.00;98495.63;5089013;28;20051;-81
2022/04/05 08:48:49;;;;;;;12.98;7.65;;;;;;;4.64;100.00;98501.53;5092045;28;20077;-81
2022/04/05 08:51:16;;;;;;;13.80;8.13;;;;;;;4.65;100.00;98500.53;5084260;28;20044;-82
2022/04/05 08:53:43;;;;;;;13.32;8.02;;;;;;;4.66;100.00;98494.16;5078855;28;20321;-81
2022/04/05 08:56:09;;;;;;;10.23;7.78;;;;;;;4.63;100.00;98489.91;5091295;28;20153;-81
2022/04/05 08:58:38;;;;;;;14.30;7.43;;;;;;;4.78;100.00;98495.53;5089875;28;20411;-81
2022/04/05 09:01:04;;;;;;;14.68;8.55;;;;;;;4.82;100.00;98496.03;5089232;28;20138;-82
2022/04/05 09:03:32;;;;;;;13.90;8.25;;;;;;;4.87;100.00;98497.22;5090930;28;20105;-81
2022/04/05 09:05:59;;;;;;;13.23;8.35;;;;;;;4.82;100.00;98504.09;5091604;28;20130;-82
2022/04/05 09:08:29;;;;;;;15.32;8.20;;;;;;;4.91;100.00;98493.19;5091507;28;20056;-81
2022/04/05 09:11:12;;;;;;;17.15;9.13;;;;;;;5.13;100.00;98498.94;5091210;28;20052;-81
2022/04/05 09:13:39;;;;;;;12.75;8.43;;;;;;;5.22;100.00;98486.34;5089860;28;20101;-82
2022/04/05 09:16:08;;;;;;;11.55;8.88;;;;;;;5.03;100.00;98482.09;5073015;28;20040;-82
2022/04/05 09:18:36;;;;;;;13.93;8.60;;;;;;;5.20;100.00;98494.59;5089931;28;20044;-82
2022/04/05 09:21:03;;;;;;;16.65;8.85;;;;;;;5.26;100.00;98491.22;5081511;28;20042;-81
2022/04/05 09:23:34;;;;;;;12.98;8.10;;;;;;;5.17;100.00;98497.63;5090299;28;20139;-81
2022/04/05 09:26:02;;;;;;;12.68;8.18;;;;;;;5.24;100.00;98504.03;5084334;28;20108;-81
2022/04/05 09:28:34;;;;;;;14.63;8.60;;;;;;;5.27;100.00;98484.00;5090205;28;20048;-81
2022/04/05 09:31:03;;;;;;;11.55;7.68;;;;;;;5.28;100.00;98488.34;5090942;28;20093;-81
2022/04/05 09:33:32;;;;;;;12.18;8.30;;;;;;;5.36;100.00;98504.56;5090369;28;20411;-81
2022/04/05 09:36:10;;;;;;;14.80;8.77;;;;;;;5.33;100.00;98494.09;5091259;28;20052;-81
2022/04/05 09:38:40;;;;;;;17.02;9.07;;;;;;;5.33;100.00;98504.88;5091184;28;20044;-82
2022/04/05 09:41:11;;;;;;;17.67;9.25;;;;;;;5.23;100.00;98502.34;5081534;28;20514;-81
2022/04/05 09:43:37;;;;;;;17.27;8.73;;;;;;;5.18;100.00;98491.22;5079697;28;20045;-81
2022/04/05 09:46:05;;;;;;;13.57;8.73;;;;;;;5.17;100.00;98494.09;5070579;28;20048;-81
2022/04/05 09:48:35;;;;;;;14.70;9.20;;;;;;;5.27;100.00;98489.38;5070989;28;20139;-82
2022/04/05 09:51:06;;;;;;;;;;;;;;;5.37;100.00;98495.44;5071207;28;20444;-82
2022/04/05 09:53:50;;;;;;;14.75;8.65;;;;;;;5.48;100.00;98496.97;5069876;28;19921;-82
2022/04/05 09:56:19;;;;;;;12.52;8.90;;;;;;;5.50;100.00;98501.16;5082692;28;20414;-82
2022/04/05 09:58:48;;;;;;;14.52;8.75;;;;;;;5.40;100.00;98494.25;5089727;28;20596;-82
2022/04/05 10:01:16;;;;;;;13.05;8.27;;;;;;;5.50;100.00;98495.78;5089688;28;20082;-81
2022/04/05 10:03:44;;;;;;;13.45;9.00;;;;;;;5.39;100.00;98495.25;5090016;28;20051;-82
2022/04/05 10:06:10;;;;;;;16.65;8.13;;;;;;;5.36;100.00;98496.47;5090811;28;20040;-82
2022/04/05 10:08:39;;;;;;;15.23;9.55;;;;;;;5.48;100.00;98497.81;5088850;28;20048;-81
2022/04/05 10:11:06;;;;;;;12.68;9.25;;;;;;;5.63;100.00;98495.28;5072351;28;20048;-81
2022/04/05 10:13:33;;;;;;;12.93;8.52;;;;;;;5.58;100.00;98488.69;5075946;28;20047;-82
2022/04/05 10:16:01;;;;;;;12.38;7.22;;;;;;;5.59;100.00;98493.91;5090412;28;20052;-81
2022/04/05 10:18:34;;;;;;;14.25;7.70;;;;;;;5.43;100.00;98483.97;5090491;28;20052;-81
2022/04/05 10:21:02;;;;;;;14.70;8.80;;;;;;;5.64;100.00;98499.63;5090601;28;20480;-81
2022/04/05 10:23:30;;;;;;;12.95;7.63;;;;;;;5.57;100.00;98503.19;5089188;28;20084;-82
2022/04/05 10:25:57;;;;;;;12.27;8.02;;;;;;;5.55;100.00;98489.88;5090727;28;20044;-82
2022/04/05 10:28:27;;;;;;;12.02;7.25;;;;;;;5.68;100.00;98505.56;5083869;28;20044;-81
2022/04/05 10:31:00;;;;;;;11.10;7.05;;;;;;;5.60;100.00;98495.63;5088728;28;20102;-81
2022/04/05 10:33:34;;;;;;;11.50;7.38;;;;;;;5.68;100.00;98510.94;5089493;28;20510;-81
2022/04/05 10:36:02;;;;;;;13.05;7.97;;;;;;;5.78;100.00;98503.53;5088937;28;20044;-81
2022/04/05 10:38:30;;;;;;;12.57;7.78;;;;;;;5.77;100.00;98503.69;5080778;28;20059;-81
2022/04/05 10:41:19;;;;;;;12.27;7.38;;;;;;;5.85;100.00;98512.59;5070001;28;20048;-81
2022/04/05 10:44:23;;;;;;;11.43;7.35;;;;;;;5.75;100.00;98508.41;5069095;28;20053;-81
2022/04/05 10:46:54;;;;;;;10.05;6.93;;;;;;;5.82;100.00;98512.09;5072136;28;20381;-81
2022/04/05 10:49:35;;;;;;;10.02;7.22;;;;;;;5.80;100.00;98485.31;5073648;28;20044;-82
2022/04/05 10:52:12;;;;;;;12.23;7.72;;;;;;;5.91;100.00;98497.59;5091878;28;20452;-82
2022/04/05 10:54:41;;;;;;;21.63;7.20;;;;;;;6.00;100.00;98499.28;5093700;28;20047;-82
2022/04/05 10:57:35;;;;;;;9.65;6.93;;;;;;;6.05;100.00;98500.63;5094134;28;20055;-82
2022/04/05 11:00:08;;;;;;;14.25;7.47;;;;;;;6.18;100.00;98492.84;5092771;28;20085;-82
2022/04/05 11:02:37;;;;;;;12.63;7.30;;;;;;;6.27;100.00;98496.38;5093524;28;20056;-82
2022/04/05 11:05:20;;;;;;;27.65;9.10;;;;;;;6.27;100.00;98488.25;5093570;28;20418;-82
2022/04/05 11:08:06;;;;;;;10.20;6.90;;;;;;;6.16;100.00;98484.91;5083332;28;20143;-82
2022/04/05 11:10:54;;;;;;;10.82;6.45;;;;;;;6.25;100.00;98495.69;5091988;28;20131;-82
2022/04/05 11:13:23;;;;;;;12.25;6.32;;;;;;;6.17;100.00;98486.63;5092773;28;20502;-82
2022/04/05 11:15:53;;;;;;;10.27;7.03;;;;;;;6.26;100.00;98492.81;5093620;28;20059;-82
2022/04/05 11:18:22;;;;;;;10.38;7.35;;;;;;;6.25;100.00;98483.03;5087640;28;20879;-82
2022/04/05 11:20:52;;;;;;;20.20;7.93;;;;;;;6.21;100.00;98481.69;5087210;28;20051;-81
2022/04/05 11:23:20;;;;;;;;;;;;;;;6.44;100.00;98492.56;5093248;28;20048;-81
2022/04/05 11:25:47;;;;;;;14.80;7.68;;;;;;;6.33;100.00;98488.41;5093206;28;19919;-81
2022/04/05 11:28:17;;;;;;;12.73;7.07;;;;;;;6.40;100.00;98480.47;5093202;28;20052;-82
2022/04/05 11:30:51;;;;;;;14.77;7.53;;;;;;;6.36;100.00;98485.34;5091438;28;20047;-81
2022/04/05 11:33:45;;;;;;;16.20;8.93;;;;;;;6.54;100.00;98489.69;5091653;28;20487;-81
2022/04/05 11:36:14;;;;;;;14.77;7.63;;;;;;;6.55;100.00;98492.19;5088035;28;20044;-82